DEYFH EDVK-

Flight info

Callsign DEYFH
Flight time N/A
Altitude
Route
Aircraft C172

Departure

Time 2026-05-07 16:17
Airport Kassel Airport (EDVK)

Arrival

Time N/A
Airport -
Time Latitude Longitude Altitude Speed Heading
2026-05-07 16:07 51.41745 9.39668 834 ft 7 kts 13°
2026-05-07 16:07 51.41774 9.39743 836 ft 10 kts 56°
2026-05-07 16:07 51.41847 9.39779 839 ft 13 kts
2026-05-07 16:08 51.41893 9.39682 841 ft 13 kts 274°
2026-05-07 16:08 51.41899 9.39528 843 ft 14 kts 277°
2026-05-07 16:08 51.41912 9.39362 844 ft 16 kts 274°
2026-05-07 16:08 51.41921 9.39183 846 ft 17 kts 271°
2026-05-07 16:09 51.41931 9.38993 848 ft 17 kts 275°
2026-05-07 16:09 51.41937 9.38887 850 ft 8 kts 275°
2026-05-07 16:09 51.41944 9.38780 850 ft 11 kts 277°
2026-05-07 16:09 51.41950 9.38628 850 ft 16 kts 274°
2026-05-07 16:10 51.41961 9.38435 852 ft 19 kts 274°
2026-05-07 16:10 51.41974 9.38214 855 ft 21 kts 275°
2026-05-07 16:10 51.41986 9.37977 856 ft 22 kts 275°
2026-05-07 16:10 51.42000 9.37731 857 ft 22 kts 273°
2026-05-07 16:11 51.42011 9.37502 857 ft 18 kts 275°
2026-05-07 16:11 51.42084 9.37411 858 ft 10 kts 15°
2026-05-07 16:11 51.42091 9.37419 858 ft 0 kts 57°
2026-05-07 16:15 51.42117 9.37431 858 ft 10 kts
2026-05-07 16:15 51.42171 9.37488 859 ft 3 kts 91°
2026-05-07 16:15 51.42168 9.37549 854 ft 23 kts 96°
2026-05-07 16:16 51.42141 9.38083 852 ft 70 kts 91°
2026-05-07 16:16 51.42088 9.38970 956 ft 85 kts 101°
2026-05-07 16:16 51.42030 9.39865 1202 ft 81 kts 96°
2026-05-07 16:16 51.42031 9.40791 1411 ft 83 kts 90°
2026-05-07 16:17 51.41830 9.41658 1616 ft 83 kts 142°
2026-05-07 16:17 51.41306 9.41775 1850 ft 77 kts 206°
2026-05-07 16:17 51.40914 9.41161 2020 ft 81 kts 233°
2026-05-07 16:17 51.40583 9.40481 2304 ft 77 kts 235°
2026-05-07 16:18 51.40269 9.39754 2518 ft 79 kts 233°
2026-05-07 16:18 51.39901 9.38930 2533 ft 96 kts 235°
2026-05-07 16:18 51.39514 9.37984 2507 ft 105 kts 239°
2026-05-07 16:18 51.39131 9.36951 2475 ft 109 kts 239°
2026-05-07 16:19 51.38769 9.35848 2421 ft 114 kts 247°
2026-05-07 16:19 51.38483 9.34704 2479 ft 110 kts 253°
2026-05-07 16:19 51.38393 9.33500 2500 ft 109 kts 266°
2026-05-07 16:19 51.38359 9.32271 2462 ft 111 kts 269°
2026-05-07 16:20 51.38368 9.31046 2460 ft 110 kts 269°
2026-05-07 16:20 51.38342 9.29818 2471 ft 109 kts 267°
2026-05-07 16:20 51.38292 9.28614 2467 ft 111 kts 265°
2026-05-07 16:20 51.38223 9.27376 2454 ft 111 kts 265°
2026-05-07 16:21 51.38145 9.26166 2512 ft 109 kts 261°
2026-05-07 16:21 51.38060 9.24959 2512 ft 112 kts 266°
2026-05-07 16:21 51.38026 9.23731 2551 ft 109 kts 265°
2026-05-07 16:21 51.37917 9.22515 2575 ft 111 kts 265°
2026-05-07 16:22 51.37851 9.21261 2514 ft 116 kts 263°
2026-05-07 16:22 51.37630 9.20037 2458 ft 116 kts 237°
2026-05-07 16:22 51.37053 9.19156 2426 ft 115 kts 215°